sensor_id;sensor_type;location;lat;lon;timestamp;temperature;humidity
5743;DHT22;2896;53.500;10.020;2023-12-20T00:00:36;5.60;99.90
5743;DHT22;2896;53.500;10.020;2023-12-20T00:03:04;5.50;99.90
5743;DHT22;2896;53.500;10.020;2023-12-20T00:05:31;5.50;99.90
5743;DHT22;2896;53.500;10.020;2023-12-20T00:07:58;5.40;99.90
5743;DHT22;2896;53.500;10.020;2023-12-20T00:10:26;5.30;99.90
5743;DHT22;2896;53.500;10.020;2023-12-20T00:12:53;5.20;99.90
5743;DHT22;2896;53.500;10.020;2023-12-20T00:15:20;5.20;99.90
5743;DHT22;2896;53.500;10.020;2023-12-20T00:17:46;5.20;99.90
5743;DHT22;2896;53.500;10.020;2023-12-20T00:20:13;5.10;99.90
5743;DHT22;2896;53.500;10.020;2023-12-20T00:22:40;5.10;99.90
5743;DHT22;2896;53.500;10.020;2023-12-20T00:25:07;5.10;99.90
5743;DHT22;2896;53.500;10.020;2023-12-20T00:27:35;5.30;99.90
5743;DHT22;2896;53.500;10.020;2023-12-20T00:30:02;5.20;99.90
5743;DHT22;2896;53.500;10.020;2023-12-20T00:32:29;5.10;99.90
5743;DHT22;2896;53.500;10.020;2023-12-20T00:34:55;5.20;99.90
5743;DHT22;2896;53.500;10.020;2023-12-20T00:37:22;5.20;99.90
5743;DHT22;2896;53.500;10.020;2023-12-20T00:39:49;5.20;99.90
5743;DHT22;2896;53.500;10.020;2023-12-20T00:42:16;5.40;99.90
5743;DHT22;2896;53.500;10.020;2023-12-20T00:44:44;5.30;99.90
5743;DHT22;2896;53.500;10.020;2023-12-20T00:47:10;5.40;99.90
5743;DHT22;2896;53.500;10.020;2023-12-20T00:49:37;5.40;99.90
5743;DHT22;2896;53.500;10.020;2023-12-20T00:52:04;5.40;99.90
5743;DHT22;2896;53.500;10.020;2023-12-20T00:54:31;5.50;99.90
5743;DHT22;2896;53.500;10.020;2023-12-20T00:56:58;5.50;99.90
5743;DHT22;2896;53.500;10.020;2023-12-20T00:59:25;5.50;99.90
5743;DHT22;2896;53.500;10.020;2023-12-20T01:01:53;5.60;99.90
5743;DHT22;2896;53.500;10.020;2023-12-20T01:04:19;5.70;99.90
5743;DHT22;2896;53.500;10.020;2023-12-20T01:06:46;5.70;99.90
5743;DHT22;2896;53.500;10.020;2023-12-20T01:09:13;5.70;99.90
5743;DHT22;2896;53.500;10.020;2023-12-20T01:11:40;5.70;99.90
5743;DHT22;2896;53.500;10.020;2023-12-20T01:14:06;5.60;99.90
5743;DHT22;2896;53.500;10.020;2023-12-20T01:16:33;5.60;99.90
5743;DHT22;2896;53.500;10.020;2023-12-20T01:19:01;5.60;99.90
5743;DHT22;2896;53.500;10.020;2023-12-20T01:21:28;5.60;99.90
5743;DHT22;2896;53.500;10.020;2023-12-20T01:23:54;5.50;99.90
5743;DHT22;2896;53.500;10.020;2023-12-20T01:26:21;5.60;99.90
5743;DHT22;2896;53.500;10.020;2023-12-20T01:28:48;5.50;99.90
5743;DHT22;2896;53.500;10.020;2023-12-20T01:31:14;5.50;99.90
5743;DHT22;2896;53.500;10.020;2023-12-20T01:33:41;5.50;99.90
5743;DHT22;2896;53.500;10.020;2023-12-20T01:36:09;5.40;99.90
5743;DHT22;2896;53.500;10.020;2023-12-20T01:38:36;5.30;99.90
5743;DHT22;2896;53.500;10.020;2023-12-20T01:41:03;5.30;99.90
5743;DHT22;2896;53.500;10.020;2023-12-20T01:43:30;5.30;99.90
5743;DHT22;2896;53.500;10.020;2023-12-20T01:45:57;5.30;99.90
5743;DHT22;2896;53.500;10.020;2023-12-20T01:48:25;5.30;99.90
5743;DHT22;2896;53.500;10.020;2023-12-20T01:50:52;5.30;99.90
5743;DHT22;2896;53.500;10.020;2023-12-20T01:53:21;5.30;99.90
5743;DHT22;2896;53.500;10.020;2023-12-20T01:55:52;5.30;99.90
5743;DHT22;2896;53.500;10.020;2023-12-20T01:58:21;5.30;99.90
5743;DHT22;2896;53.500;10.020;2023-12-20T02:00:48;5.30;99.90
5743;DHT22;2896;53.500;10.020;2023-12-20T02:03:16;5.30;99.90
5743;DHT22;2896;53.500;10.020;2023-12-20T02:05:44;5.40;99.90
5743;DHT22;2896;53.500;10.020;2023-12-20T02:08:12;5.40;99.90
5743;DHT22;2896;53.500;10.020;2023-12-20T02:10:40;5.40;99.90
5743;DHT22;2896;53.500;10.020;2023-12-20T02:13:07;5.40;99.90
5743;DHT22;2896;53.500;10.020;2023-12-20T02:15:34;5.40;99.90
5743;DHT22;2896;53.500;10.020;2023-12-20T02:18:02;5.40;99.90
5743;DHT22;2896;53.500;10.020;2023-12-20T02:20:29;5.40;99.90
5743;DHT22;2896;53.500;10.020;2023-12-20T02:22:57;5.40;99.90
5743;DHT22;2896;53.500;10.020;2023-12-20T02:25:23;5.40;99.90
5743;DHT22;2896;53.500;10.020;2023-12-20T02:27:50;5.40;99.90
5743;DHT22;2896;53.500;10.020;2023-12-20T02:30:17;5.30;99.90
5743;DHT22;2896;53.500;10.020;2023-12-20T02:32:44;5.30;99.90
5743;DHT22;2896;53.500;10.020;2023-12-20T02:35:10;5.30;99.90
5743;DHT22;2896;53.500;10.020;2023-12-20T02:37:37;5.30;99.90
5743;DHT22;2896;53.500;10.020;2023-12-20T02:40:06;5.40;99.90
5743;DHT22;2896;53.500;10.020;2023-12-20T02:42:33;5.40;99.90
5743;DHT22;2896;53.500;10.020;2023-12-20T02:45:00;5.40;99.90
5743;DHT22;2896;53.500;10.020;2023-12-20T02:47:26;5.60;99.90
5743;DHT22;2896;53.500;10.020;2023-12-20T02:49:55;5.40;99.90
5743;DHT22;2896;53.500;10.020;2023-12-20T02:52:22;5.40;99.90
5743;DHT22;2896;53.500;10.020;2023-12-20T02:54:49;5.40;99.90
5743;DHT22;2896;53.500;10.020;2023-12-20T02:57:17;5.40;99.90
5743;DHT22;2896;53.500;10.020;2023-12-20T02:59:43;5.40;99.90
5743;DHT22;2896;53.500;10.020;2023-12-20T03:02:10;5.40;99.90
5743;DHT22;2896;53.500;10.020;2023-12-20T03:04:37;5.40;99.90
5743;DHT22;2896;53.500;10.020;2023-12-20T03:07:03;5.40;99.90
5743;DHT22;2896;53.500;10.020;2023-12-20T03:09:30;5.40;99.90
5743;DHT22;2896;53.500;10.020;2023-12-20T03:11:57;5.30;99.90
5743;DHT22;2896;53.500;10.020;2023-12-20T03:14:24;5.30;99.90
5743;DHT22;2896;53.500;10.020;2023-12-20T03:16:51;5.40;99.90
5743;DHT22;2896;53.500;10.020;2023-12-20T03:19:18;5.40;99.90
5743;DHT22;2896;53.500;10.020;2023-12-20T03:21:45;5.20;99.90
5743;DHT22;2896;53.500;10.020;2023-12-20T03:24:12;5.30;99.90
5743;DHT22;2896;53.500;10.020;2023-12-20T03:26:38;5.40;99.90
5743;DHT22;2896;53.500;10.020;2023-12-20T03:29:05;5.30;99.90
5743;DHT22;2896;53.500;10.020;2023-12-20T03:31:33;5.40;99.90
5743;DHT22;2896;53.500;10.020;2023-12-20T03:34:00;5.40;99.90
5743;DHT22;2896;53.500;10.020;2023-12-20T03:36:26;5.40;99.90
5743;DHT22;2896;53.500;10.020;2023-12-20T03:38:53;5.40;99.90
5743;DHT22;2896;53.500;10.020;2023-12-20T03:41:20;5.50;99.90
5743;DHT22;2896;53.500;10.020;2023-12-20T03:43:46;5.50;99.90
5743;DHT22;2896;53.500;10.020;2023-12-20T03:46:13;5.50;99.90
5743;DHT22;2896;53.500;10.020;2023-12-20T03:48:41;5.60;99.90
5743;DHT22;2896;53.500;10.020;2023-12-20T03:51:08;5.60;99.90
5743;DHT22;2896;53.500;10.020;2023-12-20T03:53:34;5.60;99.90
5743;DHT22;2896;53.500;10.020;2023-12-20T03:56:01;5.60;99.90
5743;DHT22;2896;53.500;10.020;2023-12-20T03:58:28;5.60;99.90
5743;DHT22;2896;53.500;10.020;2023-12-20T04:00:54;5.70;99.90
5743;DHT22;2896;53.500;10.020;2023-12-20T04:03:21;5.60;99.90
5743;DHT22;2896;53.500;10.020;2023-12-20T04:05:49;5.60;99.90
5743;DHT22;2896;53.500;10.020;2023-12-20T04:08:15;5.60;99.90
5743;DHT22;2896;53.500;10.020;2023-12-20T04:10:42;5.70;99.90
5743;DHT22;2896;53.500;10.020;2023-12-20T04:13:09;5.80;99.90
5743;DHT22;2896;53.500;10.020;2023-12-20T04:15:35;5.80;99.90
5743;DHT22;2896;53.500;10.020;2023-12-20T04:18:02;5.80;99.90
5743;DHT22;2896;53.500;10.020;2023-12-20T04:20:29;5.80;99.90
5743;DHT22;2896;53.500;10.020;2023-12-20T04:22:57;5.60;99.90
5743;DHT22;2896;53.500;10.020;2023-12-20T04:25:24;5.70;99.90
5743;DHT22;2896;53.500;10.020;2023-12-20T04:27:50;5.70;99.90
5743;DHT22;2896;53.500;10.020;2023-12-20T04:30:17;5.80;99.90
5743;DHT22;2896;53.500;10.020;2023-12-20T04:32:44;5.80;99.90
5743;DHT22;2896;53.500;10.020;2023-12-20T04:35:10;5.80;99.90
5743;DHT22;2896;53.500;10.020;2023-12-20T04:37:37;5.80;99.90
5743;DHT22;2896;53.500;10.020;2023-12-20T04:40:06;5.70;99.90
5743;DHT22;2896;53.500;10.020;2023-12-20T04:42:33;5.80;99.90
5743;DHT22;2896;53.500;10.020;2023-12-20T04:45:00;5.80;99.90
5743;DHT22;2896;53.500;10.020;2023-12-20T04:47:27;5.90;99.90
5743;DHT22;2896;53.500;10.020;2023-12-20T04:49:54;5.80;99.90
5743;DHT22;2896;53.500;10.020;2023-12-20T04:52:20;5.80;99.90
5743;DHT22;2896;53.500;10.020;2023-12-20T04:54:47;5.80;99.90
5743;DHT22;2896;53.500;10.020;2023-12-20T04:57:15;5.90;99.90
5743;DHT22;2896;53.500;10.020;2023-12-20T04:59:42;5.90;99.90
5743;DHT22;2896;53.500;10.020;2023-12-20T05:02:08;5.90;99.90
5743;DHT22;2896;53.500;10.020;2023-12-20T05:04:35;5.90;99.90
5743;DHT22;2896;53.500;10.020;2023-12-20T05:07:02;5.90;99.90
5743;DHT22;2896;53.500;10.020;2023-12-20T05:09:30;5.90;99.90
5743;DHT22;2896;53.500;10.020;2023-12-20T05:11:56;5.90;99.90
5743;DHT22;2896;53.500;10.020;2023-12-20T05:14:25;5.90;99.90
5743;DHT22;2896;53.500;10.020;2023-12-20T05:16:51;5.90;99.90
5743;DHT22;2896;53.500;10.020;2023-12-20T05:19:18;5.90;99.90
5743;DHT22;2896;53.500;10.020;2023-12-20T05:21:45;5.90;99.90
5743;DHT22;2896;53.500;10.020;2023-12-20T05:24:11;6.00;99.90
5743;DHT22;2896;53.500;10.020;2023-12-20T05:26:38;6.00;99.90
5743;DHT22;2896;53.500;10.020;2023-12-20T05:29:04;6.00;99.90
5743;DHT22;2896;53.500;10.020;2023-12-20T05:31:32;6.00;99.90
5743;DHT22;2896;53.500;10.020;2023-12-20T05:33:59;6.00;99.90
5743;DHT22;2896;53.500;10.020;2023-12-20T05:36:26;6.00;99.90
5743;DHT22;2896;53.500;10.020;2023-12-20T05:38:53;6.00;99.90
5743;DHT22;2896;53.500;10.020;2023-12-20T05:41:20;6.10;99.90
5743;DHT22;2896;53.500;10.020;2023-12-20T05:43:48;6.10;99.90
5743;DHT22;2896;53.500;10.020;2023-12-20T05:46:15;6.80;99.90
5743;DHT22;2896;53.500;10.020;2023-12-20T05:48:43;6.10;99.90
5743;DHT22;2896;53.500;10.020;2023-12-20T05:51:11;6.10;99.90
5743;DHT22;2896;53.500;10.020;2023-12-20T05:53:38;6.10;99.90
5743;DHT22;2896;53.500;10.020;2023-12-20T05:56:06;6.20;99.90
5743;DHT22;2896;53.500;10.020;2023-12-20T05:58:35;6.20;99.90
5743;DHT22;2896;53.500;10.020;2023-12-20T06:01:03;6.20;99.90
5743;DHT22;2896;53.500;10.020;2023-12-20T06:03:29;6.10;99.90
5743;DHT22;2896;53.500;10.020;2023-12-20T06:05:57;6.20;99.90
5743;DHT22;2896;53.500;10.020;2023-12-20T06:08:26;6.10;99.90
5743;DHT22;2896;53.500;10.020;2023-12-20T06:10:52;5.10;99.90
5743;DHT22;2896;53.500;10.020;2023-12-20T06:13:19;6.00;99.90
5743;DHT22;2896;53.500;10.020;2023-12-20T06:15:45;6.10;99.90
5743;DHT22;2896;53.500;10.020;2023-12-20T06:18:12;6.00;99.90
5743;DHT22;2896;53.500;10.020;2023-12-20T06:20:39;6.00;99.90
5743;DHT22;2896;53.500;10.020;2023-12-20T06:23:07;6.00;99.90
5743;DHT22;2896;53.500;10.020;2023-12-20T06:25:33;6.10;99.90
5743;DHT22;2896;53.500;10.020;2023-12-20T06:28:00;6.10;99.90
5743;DHT22;2896;53.500;10.020;2023-12-20T06:30:26;6.10;99.90
5743;DHT22;2896;53.500;10.020;2023-12-20T06:32:54;6.00;99.90
5743;DHT22;2896;53.500;10.020;2023-12-20T06:35:23;6.10;99.90
5743;DHT22;2896;53.500;10.020;2023-12-20T06:37:49;6.10;99.90
5743;DHT22;2896;53.500;10.020;2023-12-20T06:40:17;6.10;99.90
5743;DHT22;2896;53.500;10.020;2023-12-20T06:42:44;6.10;99.90
5743;DHT22;2896;53.500;10.020;2023-12-20T06:45:11;6.10;99.90
5743;DHT22;2896;53.500;10.020;2023-12-20T06:47:38;6.10;99.90
5743;DHT22;2896;53.500;10.020;2023-12-20T06:50:05;6.10;99.90
5743;DHT22;2896;53.500;10.020;2023-12-20T06:52:33;6.10;99.90
5743;DHT22;2896;53.500;10.020;2023-12-20T06:55:00;6.10;99.90
5743;DHT22;2896;53.500;10.020;2023-12-20T06:57:31;6.10;99.90
5743;DHT22;2896;53.500;10.020;2023-12-20T06:59:58;6.10;99.90
5743;DHT22;2896;53.500;10.020;2023-12-20T07:02:24;6.20;99.90
5743;DHT22;2896;53.500;10.020;2023-12-20T07:04:54;6.20;99.90
5743;DHT22;2896;53.500;10.020;2023-12-20T07:07:21;6.10;99.90
5743;DHT22;2896;53.500;10.020;2023-12-20T07:09:48;6.10;99.90
5743;DHT22;2896;53.500;10.020;2023-12-20T07:12:15;6.10;99.90
5743;DHT22;2896;53.500;10.020;2023-12-20T07:14:45;6.10;99.90
5743;DHT22;2896;53.500;10.020;2023-12-20T07:17:12;6.00;99.90
5743;DHT22;2896;53.500;10.020;2023-12-20T07:19:40;6.10;99.90
5743;DHT22;2896;53.500;10.020;2023-12-20T07:22:07;6.00;99.90
5743;DHT22;2896;53.500;10.020;2023-12-20T07:24:34;6.00;99.90
5743;DHT22;2896;53.500;10.020;2023-12-20T07:27:01;6.00;99.90
5743;DHT22;2896;53.500;10.020;2023-12-20T07:29:28;6.10;99.90
5743;DHT22;2896;53.500;10.020;2023-12-20T07:31:56;6.10;99.90
5743;DHT22;2896;53.500;10.020;2023-12-20T07:34:23;6.10;99.90
5743;DHT22;2896;53.500;10.020;2023-12-20T07:36:49;6.20;99.90
5743;DHT22;2896;53.500;10.020;2023-12-20T07:39:16;6.10;99.90
5743;DHT22;2896;53.500;10.020;2023-12-20T07:41:44;6.20;99.90
5743;DHT22;2896;53.500;10.020;2023-12-20T07:44:11;6.20;99.90
5743;DHT22;2896;53.500;10.020;2023-12-20T07:46:37;6.30;99.90
5743;DHT22;2896;53.500;10.020;2023-12-20T07:49:05;6.30;99.90
5743;DHT22;2896;53.500;10.020;2023-12-20T07:51:33;6.40;99.90
5743;DHT22;2896;53.500;10.020;2023-12-20T07:54:00;6.40;99.90
5743;DHT22;2896;53.500;10.020;2023-12-20T07:56:27;6.50;99.90
5743;DHT22;2896;53.500;10.020;2023-12-20T07:58:53;6.40;99.90
5743;DHT22;2896;53.500;10.020;2023-12-20T08:01:20;6.40;99.90
5743;DHT22;2896;53.500;10.020;2023-12-20T08:03:48;6.40;99.90
5743;DHT22;2896;53.500;10.020;2023-12-20T08:06:16;6.40;99.90
5743;DHT22;2896;53.500;10.020;2023-12-20T08:08:43;6.40;99.90
5743;DHT22;2896;53.500;10.020;2023-12-20T08:11:10;6.40;99.90
5743;DHT22;2896;53.500;10.020;2023-12-20T08:13:38;6.50;99.90
5743;DHT22;2896;53.500;10.020;2023-12-20T08:16:05;6.60;99.90
5743;DHT22;2896;53.500;10.020;2023-12-20T08:18:32;6.60;99.90
5743;DHT22;2896;53.500;10.020;2023-12-20T08:20:59;8.10;99.90
5743;DHT22;2896;53.500;10.020;2023-12-20T08:23:28;6.60;99.90
5743;DHT22;2896;53.500;10.020;2023-12-20T08:25:55;6.60;99.90
5743;DHT22;2896;53.500;10.020;2023-12-20T08:28:22;6.60;99.90
5743;DHT22;2896;53.500;10.020;2023-12-20T08:30:48;6.30;99.90
5743;DHT22;2896;53.500;10.020;2023-12-20T08:33:21;6.70;99.90
5743;DHT22;2896;53.500;10.020;2023-12-20T08:35:48;6.80;99.90
5743;DHT22;2896;53.500;10.020;2023-12-20T08:38:15;6.80;99.90
5743;DHT22;2896;53.500;10.020;2023-12-20T08:40:43;6.80;99.90
5743;DHT22;2896;53.500;10.020;2023-12-20T08:43:10;8.40;99.90
5743;DHT22;2896;53.500;10.020;2023-12-20T08:45:38;8.40;99.90
5743;DHT22;2896;53.500;10.020;2023-12-20T08:48:09;9.80;99.90
5743;DHT22;2896;53.500;10.020;2023-12-20T08:50:38;8.50;99.90
5743;DHT22;2896;53.500;10.020;2023-12-20T08:53:05;7.10;99.90
5743;DHT22;2896;53.500;10.020;2023-12-20T08:55:32;7.20;99.90
5743;DHT22;2896;53.500;10.020;2023-12-20T08:58:01;7.30;99.90
5743;DHT22;2896;53.500;10.020;2023-12-20T09:00:27;7.30;99.90
5743;DHT22;2896;53.500;10.020;2023-12-20T09:02:55;7.20;99.90
5743;DHT22;2896;53.500;10.020;2023-12-20T09:05:22;7.10;99.90
5743;DHT22;2896;53.500;10.020;2023-12-20T09:07:48;7.00;99.90
5743;DHT22;2896;53.500;10.020;2023-12-20T09:10:15;7.00;99.90
5743;DHT22;2896;53.500;10.020;2023-12-20T09:12:47;6.90;99.90
5743;DHT22;2896;53.500;10.020;2023-12-20T09:15:15;6.90;99.90
5743;DHT22;2896;53.500;10.020;2023-12-20T09:17:42;9.20;99.90
5743;DHT22;2896;53.500;10.020;2023-12-20T09:20:09;6.80;99.90
5743;DHT22;2896;53.500;10.020;2023-12-20T09:22:38;6.80;99.90
5743;DHT22;2896;53.500;10.020;2023-12-20T09:25:08;6.50;99.90
5743;DHT22;2896;53.500;10.020;2023-12-20T09:27:37;6.60;99.90
5743;DHT22;2896;53.500;10.020;2023-12-20T09:30:05;6.40;99.90
5743;DHT22;2896;53.500;10.020;2023-12-20T09:32:33;6.30;99.90
5743;DHT22;2896;53.500;10.020;2023-12-20T09:35:00;6.30;99.90
5743;DHT22;2896;53.500;10.020;2023-12-20T09:37:27;6.20;99.90
5743;DHT22;2896;53.500;10.020;2023-12-20T09:39:57;6.30;99.90
5743;DHT22;2896;53.500;10.020;2023-12-20T09:42:29;8.90;99.90
5743;DHT22;2896;53.500;10.020;2023-12-20T09:44:58;6.20;99.90
5743;DHT22;2896;53.500;10.020;2023-12-20T09:47:30;9.00;99.90
5743;DHT22;2896;53.500;10.020;2023-12-20T09:49:58;6.20;99.90
5743;DHT22;2896;53.500;10.020;2023-12-20T09:52:24;6.20;99.90
5743;DHT22;2896;53.500;10.020;2023-12-20T09:54:53;6.30;99.90
5743;DHT22;2896;53.500;10.020;2023-12-20T09:57:20;6.30;99.90
5743;DHT22;2896;53.500;10.020;2023-12-20T09:59:49;8.20;99.90
5743;DHT22;2896;53.500;10.020;2023-12-20T10:02:18;6.30;99.90
5743;DHT22;2896;53.500;10.020;2023-12-20T10:04:48;6.20;99.90
5743;DHT22;2896;53.500;10.020;2023-12-20T10:07:17;6.20;99.90
5743;DHT22;2896;53.500;10.020;2023-12-20T10:09:44;6.10;99.90
5743;DHT22;2896;53.500;10.020;2023-12-20T10:12:12;6.30;99.90
5743;DHT22;2896;53.500;10.020;2023-12-20T10:14:39;6.00;99.90
5743;DHT22;2896;53.500;10.020;2023-12-20T10:17:06;6.10;99.90
5743;DHT22;2896;53.500;10.020;2023-12-20T10:19:33;7.10;42.30
5743;DHT22;2896;53.500;10.020;2023-12-20T10:22:00;6.10;1.00
5743;DHT22;2896;53.500;10.020;2023-12-20T10:24:29;6.10;1.00
5743;DHT22;2896;53.500;10.020;2023-12-20T10:27:03;9.30;1.00
5743;DHT22;2896;53.500;10.020;2023-12-20T10:29:32;6.20;1.00
5743;DHT22;2896;53.500;10.020;2023-12-20T10:31:59;6.20;1.00
5743;DHT22;2896;53.500;10.020;2023-12-20T10:34:26;6.10;1.00
5743;DHT22;2896;53.500;10.020;2023-12-20T10:36:53;6.00;1.00
5743;DHT22;2896;53.500;10.020;2023-12-20T10:39:20;6.20;1.00
5743;DHT22;2896;53.500;10.020;2023-12-20T10:41:49;8.30;1.00
5743;DHT22;2896;53.500;10.020;2023-12-20T10:44:15;6.30;1.00
5743;DHT22;2896;53.500;10.020;2023-12-20T10:46:43;9.30;1.00
5743;DHT22;2896;53.500;10.020;2023-12-20T10:49:17;9.10;1.00
5743;DHT22;2896;53.500;10.020;2023-12-20T10:51:46;6.40;1.00
5743;DHT22;2896;53.500;10.020;2023-12-20T10:54:14;6.50;1.00
5743;DHT22;2896;53.500;10.020;2023-12-20T10:56:41;6.50;1.00
5743;DHT22;2896;53.500;10.020;2023-12-20T10:59:11;6.50;1.00
5743;DHT22;2896;53.500;10.020;2023-12-20T11:01:38;6.50;1.00
5743;DHT22;2896;53.500;10.020;2023-12-20T11:04:09;8.80;1.00
5743;DHT22;2896;53.500;10.020;2023-12-20T11:06:49;6.40;1.00
5743;DHT22;2896;53.500;10.020;2023-12-20T11:09:23;6.40;1.00
5743;DHT22;2896;53.500;10.020;2023-12-20T11:12:01;6.20;1.00
5743;DHT22;2896;53.500;10.020;2023-12-20T11:14:38;6.30;1.00
5743;DHT22;2896;53.500;10.020;2023-12-20T11:17:07;6.20;1.00
5743;DHT22;2896;53.500;10.020;2023-12-20T11:19:36;6.30;1.00
5743;DHT22;2896;53.500;10.020;2023-12-20T11:22:04;6.20;43.40
5743;DHT22;2896;53.500;10.020;2023-12-20T11:24:31;8.90;1.00
5743;DHT22;2896;53.500;10.020;2023-12-20T11:27:00;8.90;1.00
5743;DHT22;2896;53.500;10.020;2023-12-20T11:29:33;6.20;58.40
5743;DHT22;2896;53.500;10.020;2023-12-20T11:32:01;6.10;94.50
5743;DHT22;2896;53.500;10.020;2023-12-20T11:34:30;9.00;1.00
5743;DHT22;2896;53.500;10.020;2023-12-20T11:36:58;8.00;38.70
5743;DHT22;2896;53.500;10.020;2023-12-20T11:39:26;6.60;1.00
5743;DHT22;2896;53.500;10.020;2023-12-20T11:41:55;6.80;1.00
5743;DHT22;2896;53.500;10.020;2023-12-20T11:44:25;6.80;99.90
5743;DHT22;2896;53.500;10.020;2023-12-20T11:46:54;6.90;99.90
5743;DHT22;2896;53.500;10.020;2023-12-20T11:49:23;8.00;38.80
5743;DHT22;2896;53.500;10.020;2023-12-20T11:51:56;6.90;99.90
5743;DHT22;2896;53.500;10.020;2023-12-20T11:54:23;6.80;1.00
5743;DHT22;2896;53.500;10.020;2023-12-20T11:56:50;8.30;99.90
5743;DHT22;2896;53.500;10.020;2023-12-20T11:59:17;6.60;1.00
5743;DHT22;2896;53.500;10.020;2023-12-20T12:01:48;6.70;77.40
5743;DHT22;2896;53.500;10.020;2023-12-20T12:04:17;5.40;99.90
5743;DHT22;2896;53.500;10.020;2023-12-20T12:06:46;4.30;99.90
5743;DHT22;2896;53.500;10.020;2023-12-20T12:09:13;6.30;99.90
5743;DHT22;2896;53.500;10.020;2023-12-20T12:11:40;6.10;99.90
5743;DHT22;2896;53.500;10.020;2023-12-20T12:14:07;8.50;99.90
5743;DHT22;2896;53.500;10.020;2023-12-20T12:16:34;6.80;99.90
5743;DHT22;2896;53.500;10.020;2023-12-20T12:19:01;6.70;99.90
5743;DHT22;2896;53.500;10.020;2023-12-20T12:21:31;6.10;99.90
5743;DHT22;2896;53.500;10.020;2023-12-20T12:24:09;6.70;1.00
5743;DHT22;2896;53.500;10.020;2023-12-20T12:26:36;6.60;50.40
5743;DHT22;2896;53.500;10.020;2023-12-20T12:29:03;6.60;75.50
5743;DHT22;2896;53.500;10.020;2023-12-20T12:31:30;6.70;1.00
5743;DHT22;2896;53.500;10.020;2023-12-20T12:33:57;6.80;99.90
5743;DHT22;2896;53.500;10.020;2023-12-20T12:36:24;7.00;99.90
5743;DHT22;2896;53.500;10.020;2023-12-20T12:38:52;7.10;1.00
5743;DHT22;2896;53.500;10.020;2023-12-20T12:41:18;7.10;99.90
5743;DHT22;2896;53.500;10.020;2023-12-20T12:43:45;7.20;99.90
5743;DHT22;2896;53.500;10.020;2023-12-20T12:46:12;7.30;1.00
5743;DHT22;2896;53.500;10.020;2023-12-20T12:48:39;7.40;1.00
5743;DHT22;2896;53.500;10.020;2023-12-20T12:51:05;7.40;1.00
5743;DHT22;2896;53.500;10.020;2023-12-20T12:53:37;7.40;99.90
5743;DHT22;2896;53.500;10.020;2023-12-20T12:56:06;7.50;99.90
5743;DHT22;2896;53.500;10.020;2023-12-20T12:58:33;7.50;1.00
5743;DHT22;2896;53.500;10.020;2023-12-20T13:00:59;7.50;89.30
5743;DHT22;2896;53.500;10.020;2023-12-20T13:03:26;7.50;1.00
5743;DHT22;2896;53.500;10.020;2023-12-20T13:05:53;7.50;99.90
5743;DHT22;2896;53.500;10.020;2023-12-20T13:08:20;7.40;99.90
5743;DHT22;2896;53.500;10.020;2023-12-20T13:10:47;7.20;1.00
5743;DHT22;2896;53.500;10.020;2023-12-20T13:13:15;7.10;99.90
5743;DHT22;2896;53.500;10.020;2023-12-20T13:15:42;7.00;99.90
5743;DHT22;2896;53.500;10.020;2023-12-20T13:18:13;6.90;99.90
5743;DHT22;2896;53.500;10.020;2023-12-20T13:20:40;6.70;99.90
5743;DHT22;2896;53.500;10.020;2023-12-20T13:23:06;6.70;1.00
5743;DHT22;2896;53.500;10.020;2023-12-20T13:25:33;6.70;99.90
5743;DHT22;2896;53.500;10.020;2023-12-20T13:28:00;6.60;1.00
5743;DHT22;2896;53.500;10.020;2023-12-20T13:30:28;6.60;1.00
5743;DHT22;2896;53.500;10.020;2023-12-20T13:32:55;6.60;99.90
5743;DHT22;2896;53.500;10.020;2023-12-20T13:35:21;6.60;1.00
5743;DHT22;2896;53.500;10.020;2023-12-20T13:37:48;6.60;1.00
5743;DHT22;2896;53.500;10.020;2023-12-20T13:40:15;6.50;1.00
5743;DHT22;2896;53.500;10.020;2023-12-20T13:42:41;6.40;99.90
5743;DHT22;2896;53.500;10.020;2023-12-20T13:45:08;6.40;1.00
5743;DHT22;2896;53.500;10.020;2023-12-20T13:47:37;6.40;1.00
5743;DHT22;2896;53.500;10.020;2023-12-20T13:50:04;6.40;1.00
5743;DHT22;2896;53.500;10.020;2023-12-20T13:52:31;6.30;99.90
5743;DHT22;2896;53.500;10.020;2023-12-20T13:54:58;6.30;99.90
5743;DHT22;2896;53.500;10.020;2023-12-20T13:57:24;6.30;1.00
5743;DHT22;2896;53.500;10.020;2023-12-20T13:59:51;6.40;7.00
5743;DHT22;2896;53.500;10.020;2023-12-20T14:02:18;6.40;99.90
5743;DHT22;2896;53.500;10.020;2023-12-20T14:04:45;6.40;14.20
5743;DHT22;2896;53.500;10.020;2023-12-20T14:07:12;6.40;57.30
5743;DHT22;2896;53.500;10.020;2023-12-20T14:09:39;6.50;1.00
5743;DHT22;2896;53.500;10.020;2023-12-20T14:12:10;6.50;1.00
5743;DHT22;2896;53.500;10.020;2023-12-20T14:14:36;6.50;1.00
5743;DHT22;2896;53.500;10.020;2023-12-20T14:17:03;6.40;99.90
5743;DHT22;2896;53.500;10.020;2023-12-20T14:19:31;6.50;28.60
5743;DHT22;2896;53.500;10.020;2023-12-20T14:21:59;6.50;99.90
5743;DHT22;2896;53.500;10.020;2023-12-20T14:24:27;6.40;1.00
5743;DHT22;2896;53.500;10.020;2023-12-20T14:26:54;6.40;1.00
5743;DHT22;2896;53.500;10.020;2023-12-20T14:29:20;6.50;1.00
5743;DHT22;2896;53.500;10.020;2023-12-20T14:31:47;6.50;1.00
5743;DHT22;2896;53.500;10.020;2023-12-20T14:34:15;6.50;1.00
5743;DHT22;2896;53.500;10.020;2023-12-20T14:36:42;6.40;1.00
5743;DHT22;2896;53.500;10.020;2023-12-20T14:39:10;6.40;1.00
5743;DHT22;2896;53.500;10.020;2023-12-20T14:41:38;6.40;99.90
5743;DHT22;2896;53.500;10.020;2023-12-20T14:44:05;6.30;1.00
5743;DHT22;2896;53.500;10.020;2023-12-20T14:46:32;6.30;51.00
5743;DHT22;2896;53.500;10.020;2023-12-20T14:48:59;6.20;26.40
5743;DHT22;2896;53.500;10.020;2023-12-20T14:51:27;6.30;1.00
5743;DHT22;2896;53.500;10.020;2023-12-20T14:53:54;6.30;1.00
5743;DHT22;2896;53.500;10.020;2023-12-20T14:56:23;6.20;1.00
5743;DHT22;2896;53.500;10.020;2023-12-20T14:58:51;6.20;8.40
5743;DHT22;2896;53.500;10.020;2023-12-20T15:01:18;6.20;99.90
5743;DHT22;2896;53.500;10.020;2023-12-20T15:03:46;6.10;99.90
5743;DHT22;2896;53.500;10.020;2023-12-20T15:06:13;6.10;1.00
5743;DHT22;2896;53.500;10.020;2023-12-20T15:08:40;6.00;99.90
5743;DHT22;2896;53.500;10.020;2023-12-20T15:11:06;5.90;1.00
5743;DHT22;2896;53.500;10.020;2023-12-20T15:13:34;5.90;1.00
5743;DHT22;2896;53.500;10.020;2023-12-20T15:16:01;5.80;1.00
5743;DHT22;2896;53.500;10.020;2023-12-20T15:18:28;5.80;99.90
5743;DHT22;2896;53.500;10.020;2023-12-20T15:20:56;5.80;99.90
5743;DHT22;2896;53.500;10.020;2023-12-20T15:23:22;5.70;1.00
5743;DHT22;2896;53.500;10.020;2023-12-20T15:25:51;5.80;99.90
5743;DHT22;2896;53.500;10.020;2023-12-20T15:28:18;5.70;1.00
5743;DHT22;2896;53.500;10.020;2023-12-20T15:30:46;5.70;42.90
5743;DHT22;2896;53.500;10.020;2023-12-20T15:33:13;5.60;99.90
5743;DHT22;2896;53.500;10.020;2023-12-20T15:35:40;5.60;1.00
5743;DHT22;2896;53.500;10.020;2023-12-20T15:38:07;5.70;48.50
5743;DHT22;2896;53.500;10.020;2023-12-20T15:40:33;5.60;1.00
5743;DHT22;2896;53.500;10.020;2023-12-20T15:43:00;5.60;99.90
5743;DHT22;2896;53.500;10.020;2023-12-20T15:45:27;5.50;99.90
5743;DHT22;2896;53.500;10.020;2023-12-20T15:47:54;5.40;99.90
5743;DHT22;2896;53.500;10.020;2023-12-20T15:50:21;5.40;1.00
5743;DHT22;2896;53.500;10.020;2023-12-20T15:52:48;5.50;1.00
5743;DHT22;2896;53.500;10.020;2023-12-20T15:55:14;5.50;1.00
5743;DHT22;2896;53.500;10.020;2023-12-20T15:57:41;5.40;1.00
5743;DHT22;2896;53.500;10.020;2023-12-20T16:00:09;5.50;1.00
5743;DHT22;2896;53.500;10.020;2023-12-20T16:02:35;5.50;99.90
5743;DHT22;2896;53.500;10.020;2023-12-20T16:05:04;5.40;99.90